sensor_id;sensor_type;location;lat;lon;timestamp;pressure;altitude;pressure_sealevel;temperature;humidity
37856;BME280;23694;43.274;26.924;2022-12-07T00:03:38;98962.84;;;4.48;100.00
37856;BME280;23694;43.274;26.924;2022-12-07T00:06:06;98964.47;;;4.51;100.00
37856;BME280;23694;43.274;26.924;2022-12-07T00:08:33;98964.66;;;4.46;100.00
37856;BME280;23694;43.274;26.924;2022-12-07T00:11:04;98962.00;;;4.47;100.00
37856;BME280;23694;43.274;26.924;2022-12-07T00:13:31;98969.84;;;4.46;100.00
37856;BME280;23694;43.274;26.924;2022-12-07T00:16:10;98965.63;;;4.43;100.00
37856;BME280;23694;43.274;26.924;2022-12-07T00:18:37;98956.16;;;4.42;100.00
37856;BME280;23694;43.274;26.924;2022-12-07T00:21:05;98966.41;;;4.45;100.00
37856;BME280;23694;43.274;26.924;2022-12-07T00:23:32;98963.19;;;4.40;100.00
37856;BME280;23694;43.274;26.924;2022-12-07T00:26:11;98965.69;;;4.42;100.00
37856;BME280;23694;43.274;26.924;2022-12-07T00:28:38;98966.41;;;4.45;100.00
37856;BME280;23694;43.274;26.924;2022-12-07T00:31:06;98960.84;;;4.34;100.00
37856;BME280;23694;43.274;26.924;2022-12-07T00:33:34;98959.22;;;4.32;100.00
37856;BME280;23694;43.274;26.924;2022-12-07T00:36:01;98957.28;;;4.37;100.00
37856;BME280;23694;43.274;26.924;2022-12-07T00:38:29;98955.78;;;4.31;100.00
37856;BME280;23694;43.274;26.924;2022-12-07T00:41:04;98960.72;;;4.37;100.00
37856;BME280;23694;43.274;26.924;2022-12-07T00:43:30;98956.50;;;4.35;100.00
37856;BME280;23694;43.274;26.924;2022-12-07T00:45:57;98956.97;;;4.24;100.00
37856;BME280;23694;43.274;26.924;2022-12-07T00:48:24;98956.38;;;4.38;100.00
37856;BME280;23694;43.274;26.924;2022-12-07T00:50:50;98957.78;;;4.45;100.00
37856;BME280;23694;43.274;26.924;2022-12-07T00:53:17;98949.88;;;4.48;100.00
37856;BME280;23694;43.274;26.924;2022-12-07T00:55:43;98954.16;;;4.49;100.00
37856;BME280;23694;43.274;26.924;2022-12-07T00:58:10;98960.97;;;4.52;100.00
37856;BME280;23694;43.274;26.924;2022-12-07T01:00:37;98958.84;;;4.41;100.00
37856;BME280;23694;43.274;26.924;2022-12-07T01:03:06;98956.50;;;4.35;100.00
37856;BME280;23694;43.274;26.924;2022-12-07T01:05:32;98954.63;;;4.38;100.00
37856;BME280;23694;43.274;26.924;2022-12-07T01:07:58;98963.31;;;4.37;100.00
37856;BME280;23694;43.274;26.924;2022-12-07T01:10:25;98956.50;;;4.35;100.00
37856;BME280;23694;43.274;26.924;2022-12-07T01:12:51;98950.66;;;4.30;100.00
37856;BME280;23694;43.274;26.924;2022-12-07T01:15:18;98952.28;;;4.32;100.00
37856;BME280;23694;43.274;26.924;2022-12-07T01:17:44;98947.38;;;4.26;100.00
37856;BME280;23694;43.274;26.924;2022-12-07T01:20:11;98941.91;;;4.32;100.00
37856;BME280;23694;43.274;26.924;2022-12-07T01:22:38;98938.75;;;4.26;100.00
37856;BME280;23694;43.274;26.924;2022-12-07T01:25:06;98946.91;;;4.37;100.00
37856;BME280;23694;43.274;26.924;2022-12-07T01:27:33;98948.59;;;4.18;100.00
37856;BME280;23694;43.274;26.924;2022-12-07T01:30:00;98939.78;;;4.22;100.00
37856;BME280;23694;43.274;26.924;2022-12-07T01:32:26;98933.63;;;4.24;100.00
37856;BME280;23694;43.274;26.924;2022-12-07T01:34:52;98945.16;;;4.37;100.00
37856;BME280;23694;43.274;26.924;2022-12-07T01:37:18;98937.19;;;4.42;100.00
37856;BME280;23694;43.274;26.924;2022-12-07T01:39:48;98938.22;;;4.38;100.00
37856;BME280;23694;43.274;26.924;2022-12-07T01:42:15;98933.63;;;4.24;100.00
37856;BME280;23694;43.274;26.924;2022-12-07T01:47:50;98916.06;;;4.31;100.00
37856;BME280;23694;43.274;26.924;2022-12-07T01:50:19;98921.81;;;4.37;100.00
37856;BME280;23694;43.274;26.924;2022-12-07T01:52:48;98911.78;;;4.30;100.00
37856;BME280;23694;43.274;26.924;2022-12-07T01:55:16;98915.22;;;4.30;100.00
37856;BME280;23694;43.274;26.924;2022-12-07T01:57:47;98914.31;;;4.31;100.00
37856;BME280;23694;43.274;26.924;2022-12-07T02:00:14;98921.19;;;4.32;100.00
37856;BME280;23694;43.274;26.924;2022-12-07T02:02:47;98920.13;;;4.36;100.00
37856;BME280;23694;43.274;26.924;2022-12-07T02:05:14;98918.44;;;4.35;100.00
37856;BME280;23694;43.274;26.924;2022-12-07T02:07:42;98907.38;;;4.32;100.00
37856;BME280;23694;43.274;26.924;2022-12-07T02:10:29;98923.63;;;4.35;100.00
37856;BME280;23694;43.274;26.924;2022-12-07T02:15:38;98917.16;;;4.25;100.00
37856;BME280;23694;43.274;26.924;2022-12-07T02:18:44;98914.38;;;4.30;100.00
37856;BME280;23694;43.274;26.924;2022-12-07T02:32:56;98915.91;;;4.34;100.00
37856;BME280;23694;43.274;26.924;2022-12-07T02:35:30;98918.50;;;4.34;100.00
37856;BME280;23694;43.274;26.924;2022-12-07T02:40:55;98913.13;;;4.38;100.00
37856;BME280;23694;43.274;26.924;2022-12-07T02:43:28;98907.03;;;4.39;100.00
37856;BME280;23694;43.274;26.924;2022-12-07T02:46:02;98909.19;;;4.30;100.00
37856;BME280;23694;43.274;26.924;2022-12-07T02:48:31;98904.50;;;4.38;100.00
37856;BME280;23694;43.274;26.924;2022-12-07T02:50:59;98906.06;;;4.42;100.00
37856;BME280;23694;43.274;26.924;2022-12-07T02:53:51;98895.13;;;4.54;100.00
37856;BME280;23694;43.274;26.924;2022-12-07T02:56:39;98897.56;;;4.59;100.00
37856;BME280;23694;43.274;26.924;2022-12-07T03:15:44;98890.69;;;4.58;100.00
37856;BME280;23694;43.274;26.924;2022-12-07T03:18:14;98893.38;;;4.55;100.00
37856;BME280;23694;43.274;26.924;2022-12-07T03:20:42;98902.91;;;4.54;100.00
37856;BME280;23694;43.274;26.924;2022-12-07T03:23:11;98905.34;;;4.59;100.00
37856;BME280;23694;43.274;26.924;2022-12-07T03:25:41;98913.88;;;4.61;100.00
37856;BME280;23694;43.274;26.924;2022-12-07T03:28:09;98913.88;;;4.61;100.00
37856;BME280;23694;43.274;26.924;2022-12-07T03:30:49;98912.84;;;4.65;100.00
37856;BME280;23694;43.274;26.924;2022-12-07T03:33:29;98910.25;;;4.65;100.00
37856;BME280;23694;43.274;26.924;2022-12-07T03:36:14;98906.53;;;4.70;100.00
37856;BME280;23694;43.274;26.924;2022-12-07T03:38:57;98916.78;;;4.73;100.00
37856;BME280;23694;43.274;26.924;2022-12-07T03:41:30;98922.09;;;4.70;100.00
37856;BME280;23694;43.274;26.924;2022-12-07T03:43:57;98920.22;;;4.74;100.00
37856;BME280;23694;43.274;26.924;2022-12-07T03:46:44;98926.31;;;4.73;100.00
37856;BME280;23694;43.274;26.924;2022-12-07T03:55:14;98913.34;;;4.73;100.00
37856;BME280;23694;43.274;26.924;2022-12-07T03:57:42;98912.34;;;4.75;100.00
37856;BME280;23694;43.274;26.924;2022-12-07T04:00:10;98913.41;;;4.71;100.00
37856;BME280;23694;43.274;26.924;2022-12-07T04:02:37;98918.66;;;4.70;100.00
37856;BME280;23694;43.274;26.924;2022-12-07T04:05:03;98915.44;;;4.65;100.00
37856;BME280;23694;43.274;26.924;2022-12-07T04:07:30;98914.69;;;4.82;100.00
37856;BME280;23694;43.274;26.924;2022-12-07T04:09:56;98913.34;;;4.92;100.00
37856;BME280;23694;43.274;26.924;2022-12-07T04:12:23;98906.25;;;4.95;100.00
37856;BME280;23694;43.274;26.924;2022-12-07T04:14:49;98904.44;;;4.97;100.00
37856;BME280;23694;43.274;26.924;2022-12-07T04:17:15;98901.63;;;5.02;100.00
37856;BME280;23694;43.274;26.924;2022-12-07T04:19:41;98898.41;;;4.97;100.00
37856;BME280;23694;43.274;26.924;2022-12-07T04:22:07;98898.81;;;5.06;100.00
37856;BME280;23694;43.274;26.924;2022-12-07T04:24:34;98895.59;;;5.01;100.00
37856;BME280;23694;43.274;26.924;2022-12-07T04:27:00;98902.31;;;5.05;100.00
37856;BME280;23694;43.274;26.924;2022-12-07T04:29:27;98890.09;;;5.07;100.00
37856;BME280;23694;43.274;26.924;2022-12-07T04:31:53;98887.38;;;5.10;100.00
37856;BME280;23694;43.274;26.924;2022-12-07T04:34:19;98882.78;;;5.16;100.00
37856;BME280;23694;43.274;26.924;2022-12-07T04:36:46;98884.28;;;5.21;100.00
37856;BME280;23694;43.274;26.924;2022-12-07T04:39:27;98891.25;;;5.21;100.00
37856;BME280;23694;43.274;26.924;2022-12-07T04:41:55;98891.78;;;5.27;100.00
37856;BME280;23694;43.274;26.924;2022-12-07T04:44:22;98900.19;;;5.32;100.00
37856;BME280;23694;43.274;26.924;2022-12-07T04:46:48;98901.25;;;5.28;100.00
37856;BME280;23694;43.274;26.924;2022-12-07T04:49:14;98904.97;;;5.41;100.00
37856;BME280;23694;43.274;26.924;2022-12-07T04:51:41;98907.69;;;5.38;100.00
37856;BME280;23694;43.274;26.924;2022-12-07T04:54:08;98905.19;;;5.37;100.00
37856;BME280;23694;43.274;26.924;2022-12-07T04:56:34;98899.91;;;5.38;100.00
37856;BME280;23694;43.274;26.924;2022-12-07T04:59:02;98897.31;;;5.38;100.00
37856;BME280;23694;43.274;26.924;2022-12-07T05:01:28;98890.94;;;5.27;100.00
37856;BME280;23694;43.274;26.924;2022-12-07T05:03:54;98884.28;;;5.21;100.00
37856;BME280;23694;43.274;26.924;2022-12-07T05:06:21;98893.09;;;5.36;100.00
37856;BME280;23694;43.274;26.924;2022-12-07T05:08:47;98891.56;;;5.32;100.00
37856;BME280;23694;43.274;26.924;2022-12-07T05:11:13;98905.72;;;5.44;100.00
37856;BME280;23694;43.274;26.924;2022-12-07T05:14:01;98900.78;;;5.20;100.00
37856;BME280;23694;43.274;26.924;2022-12-07T05:16:28;98903.59;;;4.97;100.00
37856;BME280;23694;43.274;26.924;2022-12-07T05:18:54;98903.03;;;4.90;100.00
37856;BME280;23694;43.274;26.924;2022-12-07T05:21:20;98899.09;;;4.82;100.00
37856;BME280;23694;43.274;26.924;2022-12-07T05:23:46;98900.22;;;4.95;100.00
37856;BME280;23694;43.274;26.924;2022-12-07T05:26:12;98904.78;;;4.90;100.00
37856;BME280;23694;43.274;26.924;2022-12-07T05:28:38;98900.09;;;4.79;100.00
37856;BME280;23694;43.274;26.924;2022-12-07T05:31:04;98892.66;;;4.71;100.00
37856;BME280;23694;43.274;26.924;2022-12-07T05:33:30;98897.94;;;4.50;100.00
37856;BME280;23694;43.274;26.924;2022-12-07T05:35:56;98907.00;;;4.21;100.00
37856;BME280;23694;43.274;26.924;2022-12-07T05:38:23;98906.56;;;3.91;100.00
37856;BME280;23694;43.274;26.924;2022-12-07T05:40:49;98910.53;;;3.77;100.00
37856;BME280;23694;43.274;26.924;2022-12-07T05:43:15;98910.41;;;3.80;100.00
37856;BME280;23694;43.274;26.924;2022-12-07T05:45:41;98907.34;;;3.71;100.00
37856;BME280;23694;43.274;26.924;2022-12-07T05:48:07;98904.28;;;3.61;100.00
37856;BME280;23694;43.274;26.924;2022-12-07T05:50:33;98897.25;;;3.65;100.00
37856;BME280;23694;43.274;26.924;2022-12-07T05:52:59;98899.91;;;3.63;100.00
37856;BME280;23694;43.274;26.924;2022-12-07T05:55:25;98901.25;;;3.72;100.00
37856;BME280;23694;43.274;26.924;2022-12-07T05:57:51;98900.53;;;3.68;100.00
37856;BME280;23694;43.274;26.924;2022-12-07T06:00:36;98905.28;;;3.79;100.00
37856;BME280;23694;43.274;26.924;2022-12-07T06:03:02;98907.25;;;3.94;100.00
37856;BME280;23694;43.274;26.924;2022-12-07T06:05:28;98911.41;;;3.98;100.00
37856;BME280;23694;43.274;26.924;2022-12-07T06:07:54;98913.03;;;4.01;100.00
37856;BME280;23694;43.274;26.924;2022-12-07T06:10:20;98920.34;;;4.11;100.00
37856;BME280;23694;43.274;26.924;2022-12-07T06:12:46;98924.22;;;4.22;100.00
37856;BME280;23694;43.274;26.924;2022-12-07T06:15:12;98928.09;;;4.32;100.00
37856;BME280;23694;43.274;26.924;2022-12-07T06:17:39;98923.16;;;4.46;100.00
37856;BME280;23694;43.274;26.924;2022-12-07T06:20:06;98914.34;;;4.50;100.00
37856;BME280;23694;43.274;26.924;2022-12-07T06:22:32;98922.72;;;4.57;100.00
37856;BME280;23694;43.274;26.924;2022-12-07T06:24:58;98919.66;;;4.47;100.00
37856;BME280;23694;43.274;26.924;2022-12-07T06:27:24;98926.31;;;4.53;100.00
37856;BME280;23694;43.274;26.924;2022-12-07T06:29:50;98932.91;;;4.61;100.00
37856;BME280;23694;43.274;26.924;2022-12-07T06:32:16;98929.88;;;4.70;100.00
37856;BME280;23694;43.274;26.924;2022-12-07T06:34:42;98929.25;;;4.84;100.00
37856;BME280;23694;43.274;26.924;2022-12-07T06:37:08;98931.44;;;4.93;100.00
37856;BME280;23694;43.274;26.924;2022-12-07T06:39:34;98931.28;;;4.96;100.00
37856;BME280;23694;43.274;26.924;2022-12-07T06:42:00;98924.34;;;5.16;100.00
37856;BME280;23694;43.274;26.924;2022-12-07T06:44:26;98926.31;;;5.29;100.00
37856;BME280;23694;43.274;26.924;2022-12-07T06:46:53;98920.63;;;5.40;100.00
37856;BME280;23694;43.274;26.924;2022-12-07T06:49:19;98928.03;;;5.48;100.00
37856;BME280;23694;43.274;26.924;2022-12-07T06:51:45;98927.59;;;5.57;100.00
37856;BME280;23694;43.274;26.924;2022-12-07T06:54:13;98928.53;;;5.73;100.00
37856;BME280;23694;43.274;26.924;2022-12-07T06:56:39;98926.06;;;5.89;100.00
37856;BME280;23694;43.274;26.924;2022-12-07T06:59:06;98926.00;;;5.90;100.00
37856;BME280;23694;43.274;26.924;2022-12-07T07:01:33;98930.59;;;6.02;100.00
37856;BME280;23694;43.274;26.924;2022-12-07T07:04:00;98936.00;;;6.15;100.00
37856;BME280;23694;43.274;26.924;2022-12-07T07:06:26;98933.03;;;6.23;100.00
37856;BME280;23694;43.274;26.924;2022-12-07T07:08:52;98929.88;;;6.33;100.00
37856;BME280;23694;43.274;26.924;2022-12-07T07:11:19;98929.09;;;6.49;100.00
37856;BME280;23694;43.274;26.924;2022-12-07T07:13:45;98932.06;;;6.58;100.00
37856;BME280;23694;43.274;26.924;2022-12-07T07:16:11;98933.91;;;6.56;100.00
37856;BME280;23694;43.274;26.924;2022-12-07T07:18:37;98933.50;;;6.64;100.00
37856;BME280;23694;43.274;26.924;2022-12-07T07:21:04;98935.03;;;6.68;100.00
37856;BME280;23694;43.274;26.924;2022-12-07T07:23:30;98944.47;;;6.86;100.00
37856;BME280;23694;43.274;26.924;2022-12-07T07:25:56;98951.03;;;6.93;100.00
37856;BME280;23694;43.274;26.924;2022-12-07T07:28:23;98948.78;;;7.03;100.00
37856;BME280;23694;43.274;26.924;2022-12-07T07:30:49;98951.13;;;6.92;99.98
37856;BME280;23694;43.274;26.924;2022-12-07T07:33:15;98940.50;;;6.79;100.00
37856;BME280;23694;43.274;26.924;2022-12-07T07:35:41;98934.16;;;6.52;100.00
37856;BME280;23694;43.274;26.924;2022-12-07T07:38:07;98932.25;;;6.55;100.00
37856;BME280;23694;43.274;26.924;2022-12-07T07:40:34;98939.59;;;6.80;100.00
37856;BME280;23694;43.274;26.924;2022-12-07T07:43:00;98935.31;;;6.95;100.00
37856;BME280;23694;43.274;26.924;2022-12-07T07:45:27;98931.22;;;6.91;100.00
37856;BME280;23694;43.274;26.924;2022-12-07T07:47:53;98933.56;;;7.11;100.00
37856;BME280;23694;43.274;26.924;2022-12-07T07:50:19;98930.50;;;7.20;100.00
37856;BME280;23694;43.274;26.924;2022-12-07T07:52:46;98943.41;;;7.53;100.00
37856;BME280;23694;43.274;26.924;2022-12-07T07:55:14;98937.28;;;7.54;98.12
37856;BME280;23694;43.274;26.924;2022-12-07T07:57:41;98935.28;;;7.44;98.29
37856;BME280;23694;43.274;26.924;2022-12-07T08:00:11;98937.44;;;7.51;97.76
37856;BME280;23694;43.274;26.924;2022-12-07T08:02:38;98933.97;;;7.67;97.25
37856;BME280;23694;43.274;26.924;2022-12-07T08:05:04;98935.91;;;7.63;96.90
37856;BME280;23694;43.274;26.924;2022-12-07T08:07:30;98941.34;;;8.93;90.33
37856;BME280;23694;43.274;26.924;2022-12-07T08:09:56;98953.22;;;9.12;84.86
37856;BME280;23694;43.274;26.924;2022-12-07T08:12:22;98950.00;;;9.07;85.15
37856;BME280;23694;43.274;26.924;2022-12-07T08:14:48;98942.78;;;9.66;82.01
37856;BME280;23694;43.274;26.924;2022-12-07T08:17:14;98933.41;;;9.23;83.14
37856;BME280;23694;43.274;26.924;2022-12-07T08:19:41;98932.78;;;8.48;88.51
37856;BME280;23694;43.274;26.924;2022-12-07T08:22:07;98946.59;;;8.64;89.12
37856;BME280;23694;43.274;26.924;2022-12-07T08:24:34;98943.19;;;9.33;87.74
37856;BME280;23694;43.274;26.924;2022-12-07T08:27:00;98941.38;;;10.54;79.48
37856;BME280;23694;43.274;26.924;2022-12-07T08:29:26;98944.81;;;10.42;79.36
37856;BME280;23694;43.274;26.924;2022-12-07T08:31:52;98951.34;;;8.86;85.30
37856;BME280;23694;43.274;26.924;2022-12-07T08:34:19;98947.22;;;8.82;86.75
37856;BME280;23694;43.274;26.924;2022-12-07T08:36:45;98941.06;;;10.19;83.88
37856;BME280;23694;43.274;26.924;2022-12-07T08:39:11;98940.22;;;10.71;77.47
37856;BME280;23694;43.274;26.924;2022-12-07T08:41:37;98941.63;;;12.56;69.20
37856;BME280;23694;43.274;26.924;2022-12-07T08:44:03;98941.91;;;13.86;63.32
37856;BME280;23694;43.274;26.924;2022-12-07T08:49:13;98945.22;;;13.00;62.12
37856;BME280;23694;43.274;26.924;2022-12-07T08:51:40;98943.22;;;13.04;61.36
37856;BME280;23694;43.274;26.924;2022-12-07T08:54:09;98946.78;;;12.80;62.65
37856;BME280;23694;43.274;26.924;2022-12-07T08:56:36;98945.22;;;12.66;63.18
37856;BME280;23694;43.274;26.924;2022-12-07T08:59:04;98932.91;;;12.89;62.47
37856;BME280;23694;43.274;26.924;2022-12-07T09:01:31;98921.81;;;13.30;62.81
37856;BME280;23694;43.274;26.924;2022-12-07T09:03:57;98927.41;;;13.91;60.54
37856;BME280;23694;43.274;26.924;2022-12-07T09:06:23;98927.16;;;15.48;54.02
37856;BME280;23694;43.274;26.924;2022-12-07T09:08:52;98921.97;;;16.92;48.70
37856;BME280;23694;43.274;26.924;2022-12-07T09:11:20;98920.69;;;16.20;50.22
37856;BME280;23694;43.274;26.924;2022-12-07T09:13:46;98914.00;;;14.78;54.46
37856;BME280;23694;43.274;26.924;2022-12-07T09:16:12;98909.81;;;14.45;56.98
37856;BME280;23694;43.274;26.924;2022-12-07T09:18:38;98914.75;;;15.30;54.42
37856;BME280;23694;43.274;26.924;2022-12-07T09:21:04;98906.09;;;14.15;56.69
37856;BME280;23694;43.274;26.924;2022-12-07T09:23:30;98903.78;;;13.26;60.19
37856;BME280;23694;43.274;26.924;2022-12-07T09:26:01;98897.88;;;14.09;58.09
37856;BME280;23694;43.274;26.924;2022-12-07T09:28:28;98895.81;;;14.75;54.55
37856;BME280;23694;43.274;26.924;2022-12-07T09:30:54;98897.56;;;14.65;55.58
37856;BME280;23694;43.274;26.924;2022-12-07T09:33:20;98892.38;;;14.84;55.26
37856;BME280;23694;43.274;26.924;2022-12-07T09:35:47;98891.84;;;14.59;55.31
37856;BME280;23694;43.274;26.924;2022-12-07T09:38:14;98880.41;;;15.10;54.17
37856;BME280;23694;43.274;26.924;2022-12-07T09:40:41;98876.94;;;15.79;53.07
37856;BME280;23694;43.274;26.924;2022-12-07T09:43:21;98873.88;;;15.93;51.64
37856;BME280;23694;43.274;26.924;2022-12-07T09:45:51;98862.75;;;15.70;50.28
37856;BME280;23694;43.274;26.924;2022-12-07T09:48:32;98869.47;;;13.27;57.06
37856;BME280;23694;43.274;26.924;2022-12-07T09:51:00;98867.91;;;11.65;65.19
37856;BME280;23694;43.274;26.924;2022-12-07T09:53:33;98861.94;;;11.63;66.28
37856;BME280;23694;43.274;26.924;2022-12-07T09:56:00;98852.47;;;11.26;68.47
37856;BME280;23694;43.274;26.924;2022-12-07T09:58:28;98849.81;;;11.02;70.27
37856;BME280;23694;43.274;26.924;2022-12-07T10:01:04;98862.53;;;9.94;75.89
37856;BME280;23694;43.274;26.924;2022-12-07T10:03:31;98857.84;;;9.59;79.16
37856;BME280;23694;43.274;26.924;2022-12-07T10:05:57;98848.19;;;9.99;79.34
37856;BME280;23694;43.274;26.924;2022-12-07T10:08:24;98842.88;;;10.01;77.33
37856;BME280;23694;43.274;26.924;2022-12-07T10:10:53;98834.97;;;9.36;83.29
37856;BME280;23694;43.274;26.924;2022-12-07T10:13:34;98834.97;;;9.36;82.75
37856;BME280;23694;43.274;26.924;2022-12-07T10:16:01;98848.31;;;9.04;85.05
37856;BME280;23694;43.274;26.924;2022-12-07T10:23:39;98841.69;;;9.79;83.28
37856;BME280;23694;43.274;26.924;2022-12-07T10:26:26;98837.03;;;10.23;79.28
37856;BME280;23694;43.274;26.924;2022-12-07T10:28:55;98833.25;;;10.27;80.77
37856;BME280;23694;43.274;26.924;2022-12-07T10:31:23;98829.88;;;10.63;78.31
37856;BME280;23694;43.274;26.924;2022-12-07T10:33:52;98826.53;;;10.97;76.35
37856;BME280;23694;43.274;26.924;2022-12-07T10:36:22;98824.56;;;11.25;76.98
37856;BME280;23694;43.274;26.924;2022-12-07T10:39:13;98823.91;;;11.93;72.50
37856;BME280;23694;43.274;26.924;2022-12-07T10:42:00;98813.44;;;12.15;71.07
37856;BME280;23694;43.274;26.924;2022-12-07T10:44:32;98805.72;;;12.47;68.86
37856;BME280;23694;43.274;26.924;2022-12-07T11:00:29;98798.00;;;13.11;65.74
37856;BME280;23694;43.274;26.924;2022-12-07T11:03:53;98795.38;;;12.89;67.60
37856;BME280;23694;43.274;26.924;2022-12-07T11:06:47;98792.34;;;13.16;66.57
37856;BME280;23694;43.274;26.924;2022-12-07T11:09:00;98797.91;;;12.79;67.33
37856;BME280;23694;43.274;26.924;2022-12-07T11:11:48;98781.16;;;12.91;66.66
37856;BME280;23694;43.274;26.924;2022-12-07T11:14:39;98785.59;;;13.02;67.09
37856;BME280;23694;43.274;26.924;2022-12-07T11:28:18;98769.72;;;11.46;75.16
37856;BME280;23694;43.274;26.924;2022-12-07T11:31:12;98773.13;;;11.35;76.15
37856;BME280;23694;43.274;26.924;2022-12-07T11:36:41;98774.94;;;11.10;78.05
37856;BME280;23694;43.274;26.924;2022-12-07T11:42:04;98767.16;;;10.85;81.21
37856;BME280;23694;43.274;26.924;2022-12-07T11:44:55;98773.88;;;10.53;80.47
37856;BME280;23694;43.274;26.924;2022-12-07T11:47:43;98760.59;;;10.30;81.73
37856;BME280;23694;43.274;26.924;2022-12-07T11:53:14;98759.00;;;10.53;82.54
37856;BME280;23694;43.274;26.924;2022-12-07T11:59:00;98761.56;;;10.66;82.34
37856;BME280;23694;43.274;26.924;2022-12-07T12:01:42;98751.88;;;10.55;81.30
37856;BME280;23694;43.274;26.924;2022-12-07T12:06:40;98743.09;;;10.43;82.18
37856;BME280;23694;43.274;26.924;2022-12-07T12:11:53;98741.16;;;9.83;84.49
37856;BME280;23694;43.274;26.924;2022-12-07T12:20:32;98735.78;;;9.72;84.78
37856;BME280;23694;43.274;26.924;2022-12-07T12:25:37;98733.69;;;9.65;84.41
37856;BME280;23694;43.274;26.924;2022-12-07T12:28:05;98724.59;;;9.83;82.61
37856;BME280;23694;43.274;26.924;2022-12-07T12:30:37;98726.69;;;9.91;83.21
37856;BME280;23694;43.274;26.924;2022-12-07T12:33:17;98722.72;;;9.85;84.53
37856;BME280;23694;43.274;26.924;2022-12-07T12:35:45;98724.28;;;10.00;84.56
37856;BME280;23694;43.274;26.924;2022-12-07T12:40:54;98726.38;;;9.95;83.91
37856;BME280;23694;43.274;26.924;2022-12-07T12:43:59;98727.84;;;9.87;85.02
37856;BME280;23694;43.274;26.924;2022-12-07T12:46:35;98726.78;;;10.02;85.68
37856;BME280;23694;43.274;26.924;2022-12-07T12:51:53;98721.03;;;9.97;85.72
37856;BME280;23694;43.274;26.924;2022-12-07T12:54:28;98727.44;;;9.80;86.09
37856;BME280;23694;43.274;26.924;2022-12-07T13:28:47;98699.72;;;10.39;84.11
37856;BME280;23694;43.274;26.924;2022-12-07T13:31:19;98699.22;;;10.47;82.13
37856;BME280;23694;43.274;26.924;2022-12-07T13:33:47;98699.75;;;10.27;83.89
37856;BME280;23694;43.274;26.924;2022-12-07T13:36:24;98692.63;;;10.29;84.34
37856;BME280;23694;43.274;26.924;2022-12-07T13:38:57;98695.31;;;10.53;83.47
37856;BME280;23694;43.274;26.924;2022-12-07T13:41:30;98693.63;;;10.52;83.72
37856;BME280;23694;43.274;26.924;2022-12-07T13:46:41;98696.53;;;10.23;83.32
37856;BME280;23694;43.274;26.924;2022-12-07T13:49:24;98700.38;;;10.30;84.06
37856;BME280;23694;43.274;26.924;2022-12-07T13:51:51;98710.75;;;10.32;84.01
37856;BME280;23694;43.274;26.924;2022-12-07T13:54:19;98707.28;;;10.18;85.06
37856;BME280;23694;43.274;26.924;2022-12-07T13:56:50;98710.66;;;10.08;86.02
37856;BME280;23694;43.274;26.924;2022-12-07T13:59:23;98710.88;;;10.05;86.14
37856;BME280;23694;43.274;26.924;2022-12-07T14:01:52;98710.84;;;10.17;86.96
37856;BME280;23694;43.274;26.924;2022-12-07T14:07:00;98715.38;;;10.03;87.77
37856;BME280;23694;43.274;26.924;2022-12-07T14:09:29;98718.22;;;10.00;88.47
37856;BME280;23694;43.274;26.924;2022-12-07T14:11:57;98716.94;;;10.05;89.26
37856;BME280;23694;43.274;26.924;2022-12-07T14:14:29;98714.75;;;9.99;89.83
37856;BME280;23694;43.274;26.924;2022-12-07T14:17:12;98712.66;;;10.04;89.70
37856;BME280;23694;43.274;26.924;2022-12-07T14:22:31;98716.03;;;9.94;90.71
37856;BME280;23694;43.274;26.924;2022-12-07T14:27:56;98709.34;;;9.77;92.21
37856;BME280;23694;43.274;26.924;2022-12-07T14:30:33;98708.69;;;9.73;92.54
37856;BME280;23694;43.274;26.924;2022-12-07T14:33:02;98714.03;;;9.72;92.58
37856;BME280;23694;43.274;26.924;2022-12-07T14:35:29;98705.75;;;9.52;93.94
37856;BME280;23694;43.274;26.924;2022-12-07T14:37:56;98708.56;;;9.49;94.13
37856;BME280;23694;43.274;26.924;2022-12-07T14:40:25;98707.31;;;9.42;95.38
37856;BME280;23694;43.274;26.924;2022-12-07T14:43:03;98695.41;;;9.38;96.39
37856;BME280;23694;43.274;26.924;2022-12-07T14:45:30;98699.88;;;9.36;95.96
37856;BME280;23694;43.274;26.924;2022-12-07T14:47:57;98697.59;;;9.32;96.22
37856;BME280;23694;43.274;26.924;2022-12-07T14:50:23;98700.75;;;9.10;97.55
37856;BME280;23694;43.274;26.924;2022-12-07T14:52:52;98697.25;;;9.11;97.76
37856;BME280;23694;43.274;26.924;2022-12-07T14:57:46;98703.56;;;8.94;98.09
37856;BME280;23694;43.274;26.924;2022-12-07T15:00:16;98701.38;;;9.01;98.32
37856;BME280;23694;43.274;26.924;2022-12-07T15:02:44;98699.56;;;8.88;98.40
37856;BME280;23694;43.274;26.924;2022-12-07T15:05:11;98702.78;;;8.79;100.00
37856;BME280;23694;43.274;26.924;2022-12-07T15:07:37;98702.97;;;8.76;99.89
37856;BME280;23694;43.274;26.924;2022-12-07T15:10:03;98694.53;;;8.85;99.65
37856;BME280;23694;43.274;26.924;2022-12-07T15:12:30;98687.16;;;8.65;100.00
37856;BME280;23694;43.274;26.924;2022-12-07T15:14:56;98686.09;;;8.55;100.00
37856;BME280;23694;43.274;26.924;2022-12-07T15:17:22;98690.81;;;8.63;100.00
37856;BME280;23694;43.274;26.924;2022-12-07T15:19:48;98691.09;;;8.58;100.00
37856;BME280;23694;43.274;26.924;2022-12-07T15:22:14;98693.91;;;8.55;100.00
37856;BME280;23694;43.274;26.924;2022-12-07T15:24:40;98695.50;;;8.43;100.00
37856;BME280;23694;43.274;26.924;2022-12-07T15:27:06;98699.34;;;8.38;100.00
37856;BME280;23694;43.274;26.924;2022-12-07T15:29:32;98695.91;;;8.37;100.00
37856;BME280;23694;43.274;26.924;2022-12-07T15:31:58;98699.53;;;8.35;100.00
37856;BME280;23694;43.274;26.924;2022-12-07T15:34:27;98705.09;;;8.43;100.00
37856;BME280;23694;43.274;26.924;2022-12-07T15:36:54;98704.09;;;8.45;100.00
37856;BME280;23694;43.274;26.924;2022-12-07T15:39:20;98703.34;;;8.43;100.00